Terminal Aerodrome Forecast
Issued by NWS Cleveland, OH

Home | Current Version | Previous Version | Text Only | Print | Product List | Glossary On
Versions: 1 2 3 4 5 6 7 8 9 10 11 12 13
000
FTUS41 KCLE 210529
TAFTOL
TAF
KTOL 210529Z 2106/2206 08004KT P6SM OVC200
      TEMPO 2111/2114 5SM BR
     FM211400 22008KT P6SM OVC045
     FM211800 22008KT 6SM -SHRA BR OVC035
     FM212100 24006KT 5SM -SHRA BR OVC025
     FM220200 VRB03KT 3SM BR OVC012=

USA.gov is the U.S. government's official web portal to all federal, state and local government web resources and services.